sensor_id;sensor_type;location;lat;lon;timestamp;temperature;humidity
921;DHT22;447;51.332;6.778;2023-05-02T00:00:30;17.30;92.10
921;DHT22;447;51.332;6.778;2023-05-02T00:02:59;17.30;92.10
921;DHT22;447;51.332;6.778;2023-05-02T00:05:25;17.30;92.10
921;DHT22;447;51.332;6.778;2023-05-02T00:07:52;17.20;92.00
921;DHT22;447;51.332;6.778;2023-05-02T00:10:20;17.30;92.10
921;DHT22;447;51.332;6.778;2023-05-02T00:12:46;17.20;92.00
921;DHT22;447;51.332;6.778;2023-05-02T00:15:12;17.20;92.00
921;DHT22;447;51.332;6.778;2023-05-02T00:17:40;17.20;92.00
921;DHT22;447;51.332;6.778;2023-05-02T00:20:08;17.20;92.10
921;DHT22;447;51.332;6.778;2023-05-02T00:22:34;17.20;92.10
921;DHT22;447;51.332;6.778;2023-05-02T00:25:00;17.20;92.10
921;DHT22;447;51.332;6.778;2023-05-02T00:27:32;17.10;92.10
921;DHT22;447;51.332;6.778;2023-05-02T00:29:59;17.10;92.10
921;DHT22;447;51.332;6.778;2023-05-02T00:32:28;17.10;92.20
921;DHT22;447;51.332;6.778;2023-05-02T00:34:56;17.10;92.20
921;DHT22;447;51.332;6.778;2023-05-02T00:37:25;17.10;92.30
921;DHT22;447;51.332;6.778;2023-05-02T00:39:55;17.10;92.30
921;DHT22;447;51.332;6.778;2023-05-02T00:42:21;17.10;92.40
921;DHT22;447;51.332;6.778;2023-05-02T00:44:47;17.10;92.40
921;DHT22;447;51.332;6.778;2023-05-02T00:47:14;17.10;92.50
921;DHT22;447;51.332;6.778;2023-05-02T00:49:40;17.00;92.40
921;DHT22;447;51.332;6.778;2023-05-02T00:52:07;17.00;92.50
921;DHT22;447;51.332;6.778;2023-05-02T00:54:37;17.00;92.50
921;DHT22;447;51.332;6.778;2023-05-02T00:57:04;17.00;92.50
921;DHT22;447;51.332;6.778;2023-05-02T00:59:33;16.90;92.50
921;DHT22;447;51.332;6.778;2023-05-02T01:02:33;17.00;92.60
921;DHT22;447;51.332;6.778;2023-05-02T01:11:04;16.90;92.60
921;DHT22;447;51.332;6.778;2023-05-02T01:13:34;16.90;92.70
921;DHT22;447;51.332;6.778;2023-05-02T01:16:04;16.80;92.60
921;DHT22;447;51.332;6.778;2023-05-02T01:18:35;16.80;92.70
921;DHT22;447;51.332;6.778;2023-05-02T01:21:07;16.90;92.70
921;DHT22;447;51.332;6.778;2023-05-02T01:29:19;16.80;92.70
921;DHT22;447;51.332;6.778;2023-05-02T01:31:49;16.80;93.10
921;DHT22;447;51.332;6.778;2023-05-02T01:34:20;16.80;92.80
921;DHT22;447;51.332;6.778;2023-05-02T01:36:47;16.80;92.80
921;DHT22;447;51.332;6.778;2023-05-02T01:39:21;16.70;92.80
921;DHT22;447;51.332;6.778;2023-05-02T01:41:50;16.70;92.80
921;DHT22;447;51.332;6.778;2023-05-02T01:44:21;16.70;92.80
921;DHT22;447;51.332;6.778;2023-05-02T01:46:55;16.70;92.80
921;DHT22;447;51.332;6.778;2023-05-02T01:49:22;16.70;92.90
921;DHT22;447;51.332;6.778;2023-05-02T01:51:49;16.70;92.90
921;DHT22;447;51.332;6.778;2023-05-02T01:54:19;16.70;93.00
921;DHT22;447;51.332;6.778;2023-05-02T01:56:46;16.70;93.00
921;DHT22;447;51.332;6.778;2023-05-02T01:59:18;16.70;93.10
921;DHT22;447;51.332;6.778;2023-05-02T02:01:45;16.70;93.10
921;DHT22;447;51.332;6.778;2023-05-02T02:04:16;16.70;93.20
921;DHT22;447;51.332;6.778;2023-05-02T02:06:47;16.60;93.20
921;DHT22;447;51.332;6.778;2023-05-02T02:09:16;16.60;93.20
921;DHT22;447;51.332;6.778;2023-05-02T02:11:46;16.60;93.20
921;DHT22;447;51.332;6.778;2023-05-02T02:14:26;16.60;93.30
921;DHT22;447;51.332;6.778;2023-05-02T02:17:01;16.60;93.30
921;DHT22;447;51.332;6.778;2023-05-02T02:19:32;16.60;93.40
921;DHT22;447;51.332;6.778;2023-05-02T02:21:59;16.60;93.40
921;DHT22;447;51.332;6.778;2023-05-02T02:24:28;16.60;93.40
921;DHT22;447;51.332;6.778;2023-05-02T02:26:57;16.60;93.50
921;DHT22;447;51.332;6.778;2023-05-02T02:29:23;16.50;93.50
921;DHT22;447;51.332;6.778;2023-05-02T02:31:50;16.50;93.50
921;DHT22;447;51.332;6.778;2023-05-02T02:34:23;16.50;93.50
921;DHT22;447;51.332;6.778;2023-05-02T02:37:17;16.50;93.50
921;DHT22;447;51.332;6.778;2023-05-02T02:40:05;16.50;93.60
921;DHT22;447;51.332;6.778;2023-05-02T02:42:36;16.50;93.60
921;DHT22;447;51.332;6.778;2023-05-02T02:45:26;16.50;93.70
921;DHT22;447;51.332;6.778;2023-05-02T02:51:28;16.50;93.70
921;DHT22;447;51.332;6.778;2023-05-02T02:54:08;16.50;93.80
921;DHT22;447;51.332;6.778;2023-05-02T02:56:44;16.40;93.80
921;DHT22;447;51.332;6.778;2023-05-02T02:59:19;16.40;93.80
921;DHT22;447;51.332;6.778;2023-05-02T03:02:16;16.40;93.80
921;DHT22;447;51.332;6.778;2023-05-02T03:04:45;16.40;93.90
921;DHT22;447;51.332;6.778;2023-05-02T03:07:12;16.40;93.90
921;DHT22;447;51.332;6.778;2023-05-02T03:09:48;16.40;94.00
921;DHT22;447;51.332;6.778;2023-05-02T03:12:19;16.40;94.00
921;DHT22;447;51.332;6.778;2023-05-02T03:14:49;16.40;94.00
921;DHT22;447;51.332;6.778;2023-05-02T03:17:16;16.40;94.00
921;DHT22;447;51.332;6.778;2023-05-02T03:19:44;16.40;94.00
921;DHT22;447;51.332;6.778;2023-05-02T03:22:13;16.40;94.00
921;DHT22;447;51.332;6.778;2023-05-02T03:24:42;16.40;94.10
921;DHT22;447;51.332;6.778;2023-05-02T03:27:11;16.40;94.10
921;DHT22;447;51.332;6.778;2023-05-02T03:29:40;16.30;94.00
921;DHT22;447;51.332;6.778;2023-05-02T03:32:08;16.30;94.00
921;DHT22;447;51.332;6.778;2023-05-02T03:34:39;16.30;94.00
921;DHT22;447;51.332;6.778;2023-05-02T03:37:08;16.30;94.00
921;DHT22;447;51.332;6.778;2023-05-02T03:39:34;16.30;94.00
921;DHT22;447;51.332;6.778;2023-05-02T03:42:01;16.30;94.00
921;DHT22;447;51.332;6.778;2023-05-02T03:44:29;16.30;94.00
921;DHT22;447;51.332;6.778;2023-05-02T03:47:00;16.30;94.00
921;DHT22;447;51.332;6.778;2023-05-02T03:49:29;16.30;94.00
921;DHT22;447;51.332;6.778;2023-05-02T03:51:55;16.30;94.00
921;DHT22;447;51.332;6.778;2023-05-02T03:54:26;16.20;94.00
921;DHT22;447;51.332;6.778;2023-05-02T03:56:55;16.20;94.00
921;DHT22;447;51.332;6.778;2023-05-02T03:59:31;16.20;94.00
921;DHT22;447;51.332;6.778;2023-05-02T04:02:00;16.20;94.00
921;DHT22;447;51.332;6.778;2023-05-02T04:04:39;16.20;94.00
921;DHT22;447;51.332;6.778;2023-05-02T04:07:09;16.20;94.00
921;DHT22;447;51.332;6.778;2023-05-02T04:09:41;16.20;94.00
921;DHT22;447;51.332;6.778;2023-05-02T04:12:10;16.20;94.00
921;DHT22;447;51.332;6.778;2023-05-02T04:14:42;16.20;94.00
921;DHT22;447;51.332;6.778;2023-05-02T04:17:09;16.20;94.10
921;DHT22;447;51.332;6.778;2023-05-02T04:19:44;16.20;94.10
921;DHT22;447;51.332;6.778;2023-05-02T04:22:11;16.20;94.10
921;DHT22;447;51.332;6.778;2023-05-02T04:24:42;16.20;94.10
921;DHT22;447;51.332;6.778;2023-05-02T04:27:11;16.20;94.10
921;DHT22;447;51.332;6.778;2023-05-02T04:29:37;16.20;94.10
921;DHT22;447;51.332;6.778;2023-05-02T04:32:05;16.20;94.10
921;DHT22;447;51.332;6.778;2023-05-02T04:34:32;16.20;94.20
921;DHT22;447;51.332;6.778;2023-05-02T04:36:59;16.10;94.10
921;DHT22;447;51.332;6.778;2023-05-02T04:39:29;16.10;94.10
921;DHT22;447;51.332;6.778;2023-05-02T04:42:11;16.10;94.20
921;DHT22;447;51.332;6.778;2023-05-02T04:44:45;16.10;94.20
921;DHT22;447;51.332;6.778;2023-05-02T04:47:14;16.10;94.20
921;DHT22;447;51.332;6.778;2023-05-02T04:49:42;16.10;94.20
921;DHT22;447;51.332;6.778;2023-05-02T04:52:10;16.10;94.20
921;DHT22;447;51.332;6.778;2023-05-02T04:54:36;16.10;94.30
921;DHT22;447;51.332;6.778;2023-05-02T04:57:05;16.10;94.30
921;DHT22;447;51.332;6.778;2023-05-02T04:59:38;16.10;94.40
921;DHT22;447;51.332;6.778;2023-05-02T05:02:05;16.10;94.40
921;DHT22;447;51.332;6.778;2023-05-02T05:04:33;16.00;94.40
921;DHT22;447;51.332;6.778;2023-05-02T05:06:59;16.00;94.40
921;DHT22;447;51.332;6.778;2023-05-02T05:09:28;16.00;94.50
921;DHT22;447;51.332;6.778;2023-05-02T05:11:56;16.00;94.50
921;DHT22;447;51.332;6.778;2023-05-02T05:14:22;16.00;94.60
921;DHT22;447;51.332;6.778;2023-05-02T05:16:54;16.00;94.70
921;DHT22;447;51.332;6.778;2023-05-02T05:19:24;16.00;94.70
921;DHT22;447;51.332;6.778;2023-05-02T05:21:51;16.00;94.90
921;DHT22;447;51.332;6.778;2023-05-02T05:24:21;16.00;94.90
921;DHT22;447;51.332;6.778;2023-05-02T05:26:54;16.00;95.00
921;DHT22;447;51.332;6.778;2023-05-02T05:29:22;16.00;95.00
921;DHT22;447;51.332;6.778;2023-05-02T05:31:48;16.00;95.10
921;DHT22;447;51.332;6.778;2023-05-02T05:34:17;15.90;95.10
921;DHT22;447;51.332;6.778;2023-05-02T05:36:47;15.90;95.10
921;DHT22;447;51.332;6.778;2023-05-02T05:39:13;16.00;95.30
921;DHT22;447;51.332;6.778;2023-05-02T05:41:42;15.90;95.30
921;DHT22;447;51.332;6.778;2023-05-02T05:44:12;15.90;95.40
921;DHT22;447;51.332;6.778;2023-05-02T05:46:40;15.90;95.40
921;DHT22;447;51.332;6.778;2023-05-02T05:49:10;15.90;95.50
921;DHT22;447;51.332;6.778;2023-05-02T05:51:38;15.90;95.50
921;DHT22;447;51.332;6.778;2023-05-02T05:54:04;15.90;95.60
921;DHT22;447;51.332;6.778;2023-05-02T05:56:32;15.90;95.60
921;DHT22;447;51.332;6.778;2023-05-02T05:59:07;15.90;95.70
921;DHT22;447;51.332;6.778;2023-05-02T06:01:41;15.90;95.70
921;DHT22;447;51.332;6.778;2023-05-02T06:04:08;15.90;95.70
921;DHT22;447;51.332;6.778;2023-05-02T06:06:37;15.80;95.70
921;DHT22;447;51.332;6.778;2023-05-02T06:09:05;15.80;95.70
921;DHT22;447;51.332;6.778;2023-05-02T06:11:36;15.80;95.80
921;DHT22;447;51.332;6.778;2023-05-02T06:14:04;15.80;95.80
921;DHT22;447;51.332;6.778;2023-05-02T06:16:30;15.80;95.80
921;DHT22;447;51.332;6.778;2023-05-02T06:18:56;15.80;95.80
921;DHT22;447;51.332;6.778;2023-05-02T06:21:27;15.80;95.90
921;DHT22;447;51.332;6.778;2023-05-02T06:23:56;15.80;95.80
921;DHT22;447;51.332;6.778;2023-05-02T06:26:24;15.80;95.80
921;DHT22;447;51.332;6.778;2023-05-02T06:28:54;15.80;95.80
921;DHT22;447;51.332;6.778;2023-05-02T06:31:20;15.80;95.80
921;DHT22;447;51.332;6.778;2023-05-02T06:33:46;15.80;95.80
921;DHT22;447;51.332;6.778;2023-05-02T06:36:15;15.80;95.80
921;DHT22;447;51.332;6.778;2023-05-02T06:38:41;15.80;95.80
921;DHT22;447;51.332;6.778;2023-05-02T06:41:14;15.80;95.80
921;DHT22;447;51.332;6.778;2023-05-02T06:43:40;15.80;95.80
921;DHT22;447;51.332;6.778;2023-05-02T06:46:09;15.70;95.70
921;DHT22;447;51.332;6.778;2023-05-02T06:48:42;15.70;95.70
921;DHT22;447;51.332;6.778;2023-05-02T06:51:13;15.70;95.70
921;DHT22;447;51.332;6.778;2023-05-02T06:53:41;15.70;95.70
921;DHT22;447;51.332;6.778;2023-05-02T06:56:07;15.70;95.70
921;DHT22;447;51.332;6.778;2023-05-02T06:58:33;15.70;95.60
921;DHT22;447;51.332;6.778;2023-05-02T07:01:02;15.70;95.60
921;DHT22;447;51.332;6.778;2023-05-02T07:03:31;15.70;95.70
921;DHT22;447;51.332;6.778;2023-05-02T07:06:00;15.70;95.60
921;DHT22;447;51.332;6.778;2023-05-02T07:08:30;15.70;95.60
921;DHT22;447;51.332;6.778;2023-05-02T07:10:57;15.70;95.60
921;DHT22;447;51.332;6.778;2023-05-02T07:13:22;15.70;95.60
921;DHT22;447;51.332;6.778;2023-05-02T07:15:52;15.70;95.60
921;DHT22;447;51.332;6.778;2023-05-02T07:18:21;15.70;95.50
921;DHT22;447;51.332;6.778;2023-05-02T07:20:47;15.70;95.50
921;DHT22;447;51.332;6.778;2023-05-02T07:23:15;15.70;95.50
921;DHT22;447;51.332;6.778;2023-05-02T07:25:41;15.70;95.50
921;DHT22;447;51.332;6.778;2023-05-02T07:28:09;15.70;95.40
921;DHT22;447;51.332;6.778;2023-05-02T07:30:35;15.60;95.30
921;DHT22;447;51.332;6.778;2023-05-02T07:33:01;15.60;95.30
921;DHT22;447;51.332;6.778;2023-05-02T07:35:27;15.60;95.30
921;DHT22;447;51.332;6.778;2023-05-02T07:37:53;15.60;95.20
921;DHT22;447;51.332;6.778;2023-05-02T07:40:20;15.60;95.20
921;DHT22;447;51.332;6.778;2023-05-02T07:42:48;15.60;95.10
921;DHT22;447;51.332;6.778;2023-05-02T07:45:15;15.60;95.10
921;DHT22;447;51.332;6.778;2023-05-02T07:47:41;15.60;95.00
921;DHT22;447;51.332;6.778;2023-05-02T07:50:08;15.60;95.00
921;DHT22;447;51.332;6.778;2023-05-02T07:52:34;15.60;94.90
921;DHT22;447;51.332;6.778;2023-05-02T07:55:03;15.60;94.90
921;DHT22;447;51.332;6.778;2023-05-02T07:57:32;15.50;94.80
921;DHT22;447;51.332;6.778;2023-05-02T08:00:03;15.50;94.70
921;DHT22;447;51.332;6.778;2023-05-02T08:02:42;15.50;94.70
921;DHT22;447;51.332;6.778;2023-05-02T08:05:12;15.50;94.60
921;DHT22;447;51.332;6.778;2023-05-02T08:07:40;15.50;94.50
921;DHT22;447;51.332;6.778;2023-05-02T08:10:07;15.50;94.40
921;DHT22;447;51.332;6.778;2023-05-02T08:12:39;15.50;94.40
921;DHT22;447;51.332;6.778;2023-05-02T08:15:10;15.50;94.40
921;DHT22;447;51.332;6.778;2023-05-02T08:17:39;15.40;94.30
921;DHT22;447;51.332;6.778;2023-05-02T08:20:05;15.40;94.20
921;DHT22;447;51.332;6.778;2023-05-02T08:22:34;15.40;94.20
921;DHT22;447;51.332;6.778;2023-05-02T08:25:02;15.40;94.10
921;DHT22;447;51.332;6.778;2023-05-02T08:27:28;15.40;94.10
921;DHT22;447;51.332;6.778;2023-05-02T08:29:54;15.40;94.00
921;DHT22;447;51.332;6.778;2023-05-02T08:32:22;15.40;94.00
921;DHT22;447;51.332;6.778;2023-05-02T08:34:54;15.40;94.00
921;DHT22;447;51.332;6.778;2023-05-02T08:37:21;15.40;93.90
921;DHT22;447;51.332;6.778;2023-05-02T08:39:51;15.40;93.90
921;DHT22;447;51.332;6.778;2023-05-02T08:42:17;15.40;93.90
921;DHT22;447;51.332;6.778;2023-05-02T08:44:47;15.40;93.90
921;DHT22;447;51.332;6.778;2023-05-02T08:47:17;15.40;93.80
921;DHT22;447;51.332;6.778;2023-05-02T08:49:45;15.40;93.80
921;DHT22;447;51.332;6.778;2023-05-02T08:52:14;15.40;93.70
921;DHT22;447;51.332;6.778;2023-05-02T08:54:42;15.40;93.70
921;DHT22;447;51.332;6.778;2023-05-02T08:57:11;15.40;93.70
921;DHT22;447;51.332;6.778;2023-05-02T08:59:37;15.40;93.60
921;DHT22;447;51.332;6.778;2023-05-02T09:02:22;15.30;93.50
921;DHT22;447;51.332;6.778;2023-05-02T09:04:51;15.30;93.50
921;DHT22;447;51.332;6.778;2023-05-02T09:07:25;15.30;93.50
921;DHT22;447;51.332;6.778;2023-05-02T09:09:52;15.30;93.40
921;DHT22;447;51.332;6.778;2023-05-02T09:12:24;15.30;93.40
921;DHT22;447;51.332;6.778;2023-05-02T09:15:08;15.30;93.40
921;DHT22;447;51.332;6.778;2023-05-02T09:17:45;15.30;93.30
921;DHT22;447;51.332;6.778;2023-05-02T09:20:12;15.30;93.30
921;DHT22;447;51.332;6.778;2023-05-02T09:22:50;15.30;93.30
921;DHT22;447;51.332;6.778;2023-05-02T09:25:18;15.30;93.20
921;DHT22;447;51.332;6.778;2023-05-02T09:27:52;15.30;93.20
921;DHT22;447;51.332;6.778;2023-05-02T09:30:23;15.30;93.10
921;DHT22;447;51.332;6.778;2023-05-02T09:32:51;15.30;93.00
921;DHT22;447;51.332;6.778;2023-05-02T09:35:20;15.30;93.00
921;DHT22;447;51.332;6.778;2023-05-02T09:37:50;15.30;92.90
921;DHT22;447;51.332;6.778;2023-05-02T09:40:17;15.30;92.90
921;DHT22;447;51.332;6.778;2023-05-02T09:42:44;15.30;92.80
921;DHT22;447;51.332;6.778;2023-05-02T09:45:25;15.40;92.90
921;DHT22;447;51.332;6.778;2023-05-02T09:47:54;15.40;92.80
921;DHT22;447;51.332;6.778;2023-05-02T09:50:36;15.40;92.70
921;DHT22;447;51.332;6.778;2023-05-02T09:53:05;15.40;92.60
921;DHT22;447;51.332;6.778;2023-05-02T09:55:32;15.40;92.40
921;DHT22;447;51.332;6.778;2023-05-02T09:57:58;15.40;92.30
921;DHT22;447;51.332;6.778;2023-05-02T10:00:46;15.40;92.40
921;DHT22;447;51.332;6.778;2023-05-02T10:03:18;15.40;92.30
921;DHT22;447;51.332;6.778;2023-05-02T10:05:45;15.50;92.20
921;DHT22;447;51.332;6.778;2023-05-02T10:08:17;15.50;91.90
921;DHT22;447;51.332;6.778;2023-05-02T10:10:53;15.50;91.80
921;DHT22;447;51.332;6.778;2023-05-02T10:13:23;15.50;91.60
921;DHT22;447;51.332;6.778;2023-05-02T10:16:11;15.50;91.60
921;DHT22;447;51.332;6.778;2023-05-02T10:18:52;15.60;91.60
921;DHT22;447;51.332;6.778;2023-05-02T10:21:25;15.60;91.40
921;DHT22;447;51.332;6.778;2023-05-02T10:23:55;15.60;91.30
921;DHT22;447;51.332;6.778;2023-05-02T10:26:22;15.60;91.20
921;DHT22;447;51.332;6.778;2023-05-02T10:28:49;15.60;91.30
921;DHT22;447;51.332;6.778;2023-05-02T10:31:22;15.70;91.50
921;DHT22;447;51.332;6.778;2023-05-02T10:33:51;15.70;91.50
921;DHT22;447;51.332;6.778;2023-05-02T10:36:21;15.70;91.40
921;DHT22;447;51.332;6.778;2023-05-02T10:38:48;15.70;91.20
921;DHT22;447;51.332;6.778;2023-05-02T10:41:21;15.70;91.10
921;DHT22;447;51.332;6.778;2023-05-02T10:43:52;15.70;91.10
921;DHT22;447;51.332;6.778;2023-05-02T10:46:37;15.70;91.10
921;DHT22;447;51.332;6.778;2023-05-02T10:49:07;15.80;90.80
921;DHT22;447;51.332;6.778;2023-05-02T10:51:39;15.80;90.50
921;DHT22;447;51.332;6.778;2023-05-02T10:54:20;15.80;90.20
921;DHT22;447;51.332;6.778;2023-05-02T10:59:40;15.70;89.40
921;DHT22;447;51.332;6.778;2023-05-02T11:05:04;15.70;89.20
921;DHT22;447;51.332;6.778;2023-05-02T11:07:34;15.70;89.00
921;DHT22;447;51.332;6.778;2023-05-02T11:12:43;15.80;89.20
921;DHT22;447;51.332;6.778;2023-05-02T11:18:03;15.80;89.30
921;DHT22;447;51.332;6.778;2023-05-02T11:20:36;15.80;89.30
921;DHT22;447;51.332;6.778;2023-05-02T11:25:49;15.80;88.90
921;DHT22;447;51.332;6.778;2023-05-02T11:31:09;15.80;89.20
921;DHT22;447;51.332;6.778;2023-05-02T11:33:59;15.80;89.00
921;DHT22;447;51.332;6.778;2023-05-02T11:36:32;15.90;89.30
921;DHT22;447;51.332;6.778;2023-05-02T11:39:06;15.90;89.00
921;DHT22;447;51.332;6.778;2023-05-02T11:41:43;15.90;88.80
921;DHT22;447;51.332;6.778;2023-05-02T11:44:09;15.90;88.80
921;DHT22;447;51.332;6.778;2023-05-02T11:46:41;16.00;88.60
921;DHT22;447;51.332;6.778;2023-05-02T11:49:09;16.00;87.90
921;DHT22;447;51.332;6.778;2023-05-02T11:51:38;16.00;87.30
921;DHT22;447;51.332;6.778;2023-05-02T11:54:04;16.00;87.60
921;DHT22;447;51.332;6.778;2023-05-02T11:56:32;16.00;87.90
921;DHT22;447;51.332;6.778;2023-05-02T11:58:59;16.10;87.70
921;DHT22;447;51.332;6.778;2023-05-02T12:01:28;16.10;87.70
921;DHT22;447;51.332;6.778;2023-05-02T12:04:04;16.10;87.70
921;DHT22;447;51.332;6.778;2023-05-02T12:06:31;16.10;88.10
921;DHT22;447;51.332;6.778;2023-05-02T12:09:12;16.20;88.30
921;DHT22;447;51.332;6.778;2023-05-02T12:11:43;16.20;87.80
921;DHT22;447;51.332;6.778;2023-05-02T12:14:10;16.20;87.70
921;DHT22;447;51.332;6.778;2023-05-02T12:16:36;16.20;87.00
921;DHT22;447;51.332;6.778;2023-05-02T12:19:04;16.30;86.70
921;DHT22;447;51.332;6.778;2023-05-02T12:21:32;16.30;87.20
921;DHT22;447;51.332;6.778;2023-05-02T12:24:00;16.30;87.40
921;DHT22;447;51.332;6.778;2023-05-02T12:26:31;16.30;87.50
921;DHT22;447;51.332;6.778;2023-05-02T12:29:01;16.40;87.20
921;DHT22;447;51.332;6.778;2023-05-02T12:31:27;16.40;86.20
921;DHT22;447;51.332;6.778;2023-05-02T12:34:00;16.40;86.50
921;DHT22;447;51.332;6.778;2023-05-02T12:36:33;16.40;86.60
921;DHT22;447;51.332;6.778;2023-05-02T12:39:01;16.40;86.20
921;DHT22;447;51.332;6.778;2023-05-02T12:41:38;16.50;86.40
921;DHT22;447;51.332;6.778;2023-05-02T12:44:08;16.50;85.90
921;DHT22;447;51.332;6.778;2023-05-02T12:46:57;16.50;86.00
921;DHT22;447;51.332;6.778;2023-05-02T12:49:24;16.50;86.30
921;DHT22;447;51.332;6.778;2023-05-02T12:51:53;16.50;86.20
921;DHT22;447;51.332;6.778;2023-05-02T12:54:25;16.60;85.90
921;DHT22;447;51.332;6.778;2023-05-02T12:56:58;16.60;85.50
921;DHT22;447;51.332;6.778;2023-05-02T12:59:28;16.60;86.00
921;DHT22;447;51.332;6.778;2023-05-02T13:01:57;16.60;86.20
921;DHT22;447;51.332;6.778;2023-05-02T13:04:53;16.60;85.70
921;DHT22;447;51.332;6.778;2023-05-02T13:07:24;16.70;85.80
921;DHT22;447;51.332;6.778;2023-05-02T13:09:50;16.70;85.50
921;DHT22;447;51.332;6.778;2023-05-02T13:12:18;16.70;85.30
921;DHT22;447;51.332;6.778;2023-05-02T13:14:44;16.70;84.70
921;DHT22;447;51.332;6.778;2023-05-02T13:17:15;16.70;84.40
921;DHT22;447;51.332;6.778;2023-05-02T13:19:40;16.80;84.60
921;DHT22;447;51.332;6.778;2023-05-02T13:22:11;16.80;84.60
921;DHT22;447;51.332;6.778;2023-05-02T13:24:39;16.80;84.70
921;DHT22;447;51.332;6.778;2023-05-02T13:27:07;16.80;84.10
921;DHT22;447;51.332;6.778;2023-05-02T13:29:34;16.80;83.90
921;DHT22;447;51.332;6.778;2023-05-02T13:31:59;16.90;84.10
921;DHT22;447;51.332;6.778;2023-05-02T13:34:28;16.90;83.30
921;DHT22;447;51.332;6.778;2023-05-02T13:36:54;16.90;83.20
921;DHT22;447;51.332;6.778;2023-05-02T13:39:20;16.90;83.80
921;DHT22;447;51.332;6.778;2023-05-02T13:41:46;17.00;84.10
921;DHT22;447;51.332;6.778;2023-05-02T13:44:12;17.00;84.20
921;DHT22;447;51.332;6.778;2023-05-02T13:46:42;17.00;84.20
921;DHT22;447;51.332;6.778;2023-05-02T13:49:11;17.00;84.00
921;DHT22;447;51.332;6.778;2023-05-02T13:51:39;17.00;83.10
921;DHT22;447;51.332;6.778;2023-05-02T13:54:07;17.10;81.90
921;DHT22;447;51.332;6.778;2023-05-02T13:56:38;17.10;82.30
921;DHT22;447;51.332;6.778;2023-05-02T13:59:09;17.10;82.70
921;DHT22;447;51.332;6.778;2023-05-02T14:01:41;17.20;82.50
921;DHT22;447;51.332;6.778;2023-05-02T14:04:09;17.20;82.50
921;DHT22;447;51.332;6.778;2023-05-02T14:06:40;17.20;82.40
921;DHT22;447;51.332;6.778;2023-05-02T14:09:08;17.20;82.50
921;DHT22;447;51.332;6.778;2023-05-02T14:11:34;17.30;82.60
921;DHT22;447;51.332;6.778;2023-05-02T14:14:03;17.30;82.70
921;DHT22;447;51.332;6.778;2023-05-02T14:16:31;17.30;82.40
921;DHT22;447;51.332;6.778;2023-05-02T14:19:02;17.30;82.50
921;DHT22;447;51.332;6.778;2023-05-02T14:21:33;17.40;82.50
921;DHT22;447;51.332;6.778;2023-05-02T14:23:59;17.40;82.60
921;DHT22;447;51.332;6.778;2023-05-02T14:26:25;17.40;82.30
921;DHT22;447;51.332;6.778;2023-05-02T14:28:55;17.40;82.30
921;DHT22;447;51.332;6.778;2023-05-02T14:31:26;17.40;81.80
921;DHT22;447;51.332;6.778;2023-05-02T14:33:56;17.50;82.00
921;DHT22;447;51.332;6.778;2023-05-02T14:36:29;17.50;82.00
921;DHT22;447;51.332;6.778;2023-05-02T14:38:56;17.50;82.10
921;DHT22;447;51.332;6.778;2023-05-02T14:41:25;17.50;82.00
921;DHT22;447;51.332;6.778;2023-05-02T14:43:52;17.60;82.10
921;DHT22;447;51.332;6.778;2023-05-02T14:46:20;17.60;81.50
921;DHT22;447;51.332;6.778;2023-05-02T14:48:46;17.60;81.30
921;DHT22;447;51.332;6.778;2023-05-02T14:51:14;17.60;81.10
921;DHT22;447;51.332;6.778;2023-05-02T14:53:41;17.70;81.00
921;DHT22;447;51.332;6.778;2023-05-02T14:56:13;17.70;80.90
921;DHT22;447;51.332;6.778;2023-05-02T14:58:42;17.70;80.70
921;DHT22;447;51.332;6.778;2023-05-02T15:01:20;17.70;80.70
921;DHT22;447;51.332;6.778;2023-05-02T15:03:49;17.80;80.70
921;DHT22;447;51.332;6.778;2023-05-02T15:06:20;17.80;80.40
921;DHT22;447;51.332;6.778;2023-05-02T15:08:47;17.80;80.40
921;DHT22;447;51.332;6.778;2023-05-02T15:11:13;17.90;80.20
921;DHT22;447;51.332;6.778;2023-05-02T15:13:39;17.90;80.20
921;DHT22;447;51.332;6.778;2023-05-02T15:16:08;17.90;80.10
921;DHT22;447;51.332;6.778;2023-05-02T15:18:37;18.00;80.10
921;DHT22;447;51.332;6.778;2023-05-02T15:21:06;18.00;79.90
921;DHT22;447;51.332;6.778;2023-05-02T15:23:34;18.10;80.00
921;DHT22;447;51.332;6.778;2023-05-02T15:26:03;18.10;80.30
921;DHT22;447;51.332;6.778;2023-05-02T15:28:29;18.10;80.30
921;DHT22;447;51.332;6.778;2023-05-02T15:30:55;18.10;79.90
921;DHT22;447;51.332;6.778;2023-05-02T15:33:24;18.20;80.10
921;DHT22;447;51.332;6.778;2023-05-02T15:35:58;18.20;80.90
921;DHT22;447;51.332;6.778;2023-05-02T15:38:29;18.20;79.90
921;DHT22;447;51.332;6.778;2023-05-02T15:40:58;18.20;79.80
921;DHT22;447;51.332;6.778;2023-05-02T15:43:25;18.30;79.40
921;DHT22;447;51.332;6.778;2023-05-02T15:45:55;18.30;79.10
921;DHT22;447;51.332;6.778;2023-05-02T15:48:27;18.30;78.80
921;DHT22;447;51.332;6.778;2023-05-02T15:50:53;18.40;78.90
921;DHT22;447;51.332;6.778;2023-05-02T15:53:19;18.40;79.10
921;DHT22;447;51.332;6.778;2023-05-02T15:55:49;18.40;79.50
921;DHT22;447;51.332;6.778;2023-05-02T15:58:20;18.50;79.70
921;DHT22;447;51.332;6.778;2023-05-02T16:00:46;18.50;79.70
921;DHT22;447;51.332;6.778;2023-05-02T16:03:16;18.60;79.70
921;DHT22;447;51.332;6.778;2023-05-02T16:05:47;18.60;79.50
921;DHT22;447;51.332;6.778;2023-05-02T16:08:13;18.60;79.40
921;DHT22;447;51.332;6.778;2023-05-02T16:10:41;18.70;79.40
921;DHT22;447;51.332;6.778;2023-05-02T16:13:10;18.80;79.50
921;DHT22;447;51.332;6.778;2023-05-02T16:15:37;18.70;79.30
921;DHT22;447;51.332;6.778;2023-05-02T16:18:05;18.80;79.10
921;DHT22;447;51.332;6.778;2023-05-02T16:20:31;18.90;78.70
921;DHT22;447;51.332;6.778;2023-05-02T16:23:04;18.90;78.70
921;DHT22;447;51.332;6.778;2023-05-02T16:25:35;18.90;78.60
921;DHT22;447;51.332;6.778;2023-05-02T16:28:03;19.00;78.50
921;DHT22;447;51.332;6.778;2023-05-02T16:30:30;19.00;78.20
921;DHT22;447;51.332;6.778;2023-05-02T16:32:56;19.00;77.70
921;DHT22;447;51.332;6.778;2023-05-02T16:35:22;19.10;77.60
921;DHT22;447;51.332;6.778;2023-05-02T16:37:50;19.10;77.60
921;DHT22;447;51.332;6.778;2023-05-02T16:40:16;19.20;77.60
921;DHT22;447;51.332;6.778;2023-05-02T16:42:47;19.20;77.30
921;DHT22;447;51.332;6.778;2023-05-02T16:45:16;19.20;77.00
921;DHT22;447;51.332;6.778;2023-05-02T16:47:42;19.30;76.90
921;DHT22;447;51.332;6.778;2023-05-02T16:50:08;19.30;76.60
921;DHT22;447;51.332;6.778;2023-05-02T16:52:38;19.30;76.90
921;DHT22;447;51.332;6.778;2023-05-02T16:55:07;19.30;76.70
921;DHT22;447;51.332;6.778;2023-05-02T16:57:35;19.40;76.90
921;DHT22;447;51.332;6.778;2023-05-02T17:00:04;19.40;76.90
921;DHT22;447;51.332;6.778;2023-05-02T17:02:32;19.40;77.10
921;DHT22;447;51.332;6.778;2023-05-02T17:04:58;19.40;76.40
921;DHT22;447;51.332;6.778;2023-05-02T17:07:24;19.40;75.90
921;DHT22;447;51.332;6.778;2023-05-02T17:09:50;19.30;75.60
921;DHT22;447;51.332;6.778;2023-05-02T17:12:16;19.40;75.70
921;DHT22;447;51.332;6.778;2023-05-02T17:14:47;19.40;75.70
921;DHT22;447;51.332;6.778;2023-05-02T17:17:16;19.40;75.40
921;DHT22;447;51.332;6.778;2023-05-02T17:19:45;19.30;75.70
921;DHT22;447;51.332;6.778;2023-05-02T17:22:16;19.30;75.60